Time;durP1;ratioP1;P1;durP2;ratioP2;P2;SDS_P1;SDS_P2;PMS_P1;PMS_P2;Temp;Humidity;BMP_temperature;BMP_pressure;BME280_temperature;BME280_humidity;BME280_pressure;Samples;Min_cycle;Max_cycle;Signal;HPM_P1;HPM_P2
2024/01/01 00:01:57;;;;;;;17.85;15.23;;;;;;;28.29;56.12;101034.81;4952485;28;70411;-41
2024/01/01 00:04:29;;;;;;;20.95;15.32;;;;;;;28.31;56.31;101043.53;4936697;28;65475;-40
2024/01/01 00:07:00;;;;;;;18.98;14.95;;;;;;;28.31;57.21;101031.91;4962547;28;70158;-40
2024/01/01 00:09:30;;;;;;;28.95;16.75;;;;;;;28.38;56.63;101048.97;4963688;28;65839;-39
2024/01/01 00:12:00;;;;;;;19.90;15.20;;;;;;;28.41;57.79;101053.94;4941624;28;69853;-38
2024/01/01 00:14:31;;;;;;;20.60;15.05;;;;;;;28.33;57.92;101046.84;4968940;28;66478;-38
2024/01/01 00:17:02;;;;;;;18.88;14.10;;;;;;;28.45;57.67;101064.19;4946975;28;70447;-40
2024/01/01 00:19:34;;;;;;;23.57;14.53;;;;;;;28.37;58.14;101048.13;4946086;28;66031;-39
2024/01/01 00:22:05;;;;;;;20.77;14.43;;;;;;;28.52;57.72;101072.31;4960385;28;69920;-40
2024/01/01 00:24:35;;;;;;;19.58;14.23;;;;;;;28.58;57.45;101076.06;4959803;28;65860;-39
2024/01/01 00:27:06;;;;;;;17.45;14.60;;;;;;;28.48;58.13;101054.88;4935518;28;69891;-38
2024/01/01 00:29:36;;;;;;;18.25;13.68;;;;;;;28.61;58.04;101075.66;4978337;28;66217;-39
2024/01/01 00:32:07;;;;;;;16.70;14.43;;;;;;;28.56;59.76;101073.59;4941991;28;70114;-38
2024/01/01 00:34:38;;;;;;;20.55;14.35;;;;;;;28.64;58.72;101086.06;4965851;28;65676;-38
2024/01/01 00:37:08;;;;;;;18.17;13.52;;;;;;;28.68;59.02;101098.13;4958330;28;68745;-39
2024/01/01 00:39:38;;;;;;;21.63;15.30;;;;;;;28.74;62.53;101097.34;4947806;28;65427;-40
2024/01/01 00:42:08;;;;;;;40.90;17.73;;;;;;;28.78;63.10;101100.47;4962682;28;69733;-40
2024/01/01 00:44:39;;;;;;;33.15;19.17;;;;;;;28.72;65.56;101084.06;4983135;28;66764;-39
2024/01/01 00:47:09;;;;;;;33.25;19.70;;;;;;;28.91;66.55;101108.63;4973397;28;70608;-41
2024/01/01 00:49:39;;;;;;;33.33;20.20;;;;;;;28.86;66.34;101090.34;4971499;28;66722;-41
2024/01/01 00:52:10;;;;;;;38.65;21.58;;;;;;;29.03;71.30;101116.97;4945644;28;70354;-41
2024/01/01 00:54:40;;;;;;;36.30;21.10;;;;;;;29.02;63.95;101099.09;4968989;28;65499;-42
2024/01/01 00:57:10;;;;;;;50.97;21.40;;;;;;;29.19;63.70;101122.03;4963951;28;69785;-40
2024/01/01 00:59:40;;;;;;;33.95;21.17;;;;;;;29.24;63.48;101126.84;4958343;28;65382;-40
2024/01/01 01:02:12;;;;;;;38.80;20.17;;;;;;;29.29;63.70;101133.31;4979221;28;70109;-41
2024/01/01 01:04:45;;;;;;;37.83;21.05;;;;;;;29.33;64.20;101131.84;4971181;28;66597;-41
2024/01/01 01:07:33;;;;;;;33.85;20.98;;;;;;;29.32;64.46;101127.50;4975607;28;69919;-41
2024/01/01 01:10:04;;;;;;;34.45;20.85;;;;;;;29.37;64.61;101135.81;4978499;28;66238;-41
2024/01/01 01:12:34;;;;;;;37.70;20.33;;;;;;;29.42;64.54;101134.38;4955513;28;68929;-41
2024/01/01 01:15:08;;;;;;;37.00;20.80;;;;;;;29.43;65.20;101138.75;4982566;28;66472;-40
2024/01/01 01:17:38;;;;;;;33.42;20.55;;;;;;;29.46;65.26;101132.94;4973683;28;70371;-41
2024/01/01 01:20:09;;;;;;;34.72;21.02;;;;;;;29.54;65.50;101146.25;4977587;28;66724;-40
2024/01/01 01:22:39;;;;;;;35.88;20.33;;;;;;;29.55;64.94;101142.50;4955139;28;70573;-41
2024/01/01 01:25:10;;;;;;;32.83;19.30;;;;;;;29.55;65.11;101147.91;4977924;28;66407;-40
2024/01/01 01:27:43;;;;;;;35.70;20.33;;;;;;;29.55;65.58;101146.03;4976954;28;69893;-40
2024/01/01 01:30:14;;;;;;;31.83;18.42;;;;;;;29.61;65.89;101157.91;4973369;28;66464;-43
2024/01/01 01:32:45;;;;;;;31.73;18.92;;;;;;;29.57;65.44;101146.69;4947697;28;70048;-41
2024/01/01 01:35:16;;;;;;;26.33;18.85;;;;;;;29.64;65.58;101152.13;4960976;28;66423;-42
2024/01/01 01:37:46;;;;;;;33.78;19.92;;;;;;;29.68;65.68;101163.38;4965704;28;70397;-41
2024/01/01 01:40:16;;;;;;;33.40;20.33;;;;;;;29.68;66.09;101163.38;4969209;28;66232;-42
2024/01/01 01:42:47;;;;;;;28.42;18.45;;;;;;;29.71;65.81;101174.59;4939991;28;69849;-42
2024/01/01 01:45:17;;;;;;;28.75;18.23;;;;;;;29.72;66.25;101175.44;4963578;28;66581;-42
2024/01/01 01:47:48;;;;;;;27.52;19.80;;;;;;;29.67;66.16;101158.97;4967820;28;69902;-41
2024/01/01 01:50:18;;;;;;;31.95;23.08;;;;;;;29.73;66.91;101171.69;4969306;28;65293;-40
2024/01/01 01:52:49;;;;;;;45.45;31.30;;;;;;;29.54;67.19;101151.66;4971209;28;70388;-39
2024/01/01 01:55:22;;;;;;;45.85;27.17;;;;;;;29.70;67.85;101164.84;4970039;28;66682;-40
2024/01/01 01:57:52;;;;;;;40.72;26.40;;;;;;;29.74;67.32;101174.19;4962785;28;69618;-40
2024/01/01 02:00:22;;;;;;;42.75;22.35;;;;;;;29.76;66.80;101172.13;4958218;28;66647;-40
2024/01/01 02:02:54;;;;;;;33.85;20.08;;;;;;;29.70;66.27;101155.88;4962632;28;70303;-41
2024/01/01 02:05:24;;;;;;;33.67;22.10;;;;;;;29.75;66.70;101165.03;4967624;28;66254;-41
2024/01/01 02:07:54;;;;;;;33.28;21.92;;;;;;;29.78;66.61;101175.44;4953150;28;69073;-41
2024/01/01 02:10:25;;;;;;;29.02;21.15;;;;;;;29.80;66.49;101172.53;4971472;28;65486;-40
2024/01/01 02:12:56;;;;;;;35.90;21.73;;;;;;;29.76;66.62;101164.00;4949270;28;70203;-42
2024/01/01 02:15:26;;;;;;;29.77;19.35;;;;;;;29.88;66.22;101174.22;4973263;28;65885;-40
2024/01/01 02:17:57;;;;;;;34.58;19.00;;;;;;;29.90;66.34;101172.13;4957897;28;70361;-41
2024/01/01 02:20:28;;;;;;;20.10;16.15;;;;;;;29.89;67.02;101170.44;4971971;28;65985;-41
2024/01/01 02:22:58;;;;;;;22.55;15.55;;;;;;;29.82;66.40;101165.88;4957285;28;70143;-40
2024/01/01 02:25:29;;;;;;;18.85;15.20;;;;;;;29.96;66.55;101184.81;4954575;28;67611;-41
2024/01/01 02:28:00;;;;;;;15.80;14.25;;;;;;;30.00;66.65;101177.94;4947076;28;69586;-40
2024/01/01 02:30:30;;;;;;;22.85;14.82;;;;;;;30.01;66.63;101176.94;4966792;28;66611;-42
2024/01/01 02:33:09;;;;;;;19.55;13.48;;;;;;;29.99;67.04;101174.41;4969952;28;69899;-40
2024/01/01 02:35:40;;;;;;;13.25;11.90;;;;;;;30.01;66.75;101171.53;4959023;28;66628;-40
2024/01/01 02:38:10;;;;;;;13.77;12.35;;;;;;;30.08;66.84;101176.91;4955977;28;69946;-40
2024/01/01 02:40:41;;;;;;;12.25;11.23;;;;;;;30.11;66.72;101177.31;4966797;28;65745;-40
2024/01/01 02:43:11;;;;;;;14.57;12.35;;;;;;;30.11;67.44;101174.63;4948443;28;70570;-41
2024/01/01 02:45:41;;;;;;;12.27;11.07;;;;;;;29.97;67.46;101146.75;4974612;28;65681;-41
2024/01/01 02:48:12;;;;;;;13.30;12.00;;;;;;;30.17;67.48;101163.00;4954105;28;69572;-41
2024/01/01 02:50:42;;;;;;;12.60;11.35;;;;;;;30.20;67.44;101167.13;4965669;28;65703;-41
2024/01/01 02:53:13;;;;;;;11.75;10.60;;;;;;;30.19;67.30;101171.72;4963355;28;70413;-41
2024/01/01 02:55:44;;;;;;;11.52;10.30;;;;;;;30.23;67.38;101170.28;4966774;28;66338;-40
2024/01/01 02:58:15;;;;;;;11.20;10.20;;;;;;;30.20;67.55;101151.75;4952701;28;70130;-41
2024/01/01 03:00:47;;;;;;;11.07;10.30;;;;;;;30.27;67.05;101158.00;4928710;28;65347;-41
2024/01/01 03:03:19;;;;;;;9.98;9.15;;;;;;;30.30;67.63;101167.56;4938715;28;70054;-41
2024/01/01 03:05:50;;;;;;;9.95;9.15;;;;;;;30.32;67.18;101161.97;4949267;28;65987;-41
2024/01/01 03:08:21;;;;;;;10.30;9.48;;;;;;;30.31;67.65;101157.56;4950215;28;70492;-39
2024/01/01 03:10:51;;;;;;;10.30;9.52;;;;;;;30.36;67.24;101160.50;4966459;28;65578;-40
2024/01/01 03:13:22;;;;;;;10.07;9.25;;;;;;;30.26;67.75;101134.69;4944445;28;69881;-41
2024/01/01 03:15:54;;;;;;;9.65;8.73;;;;;;;30.41;67.77;101149.88;4949756;28;66285;-44
2024/01/01 03:18:26;;;;;;;8.93;8.30;;;;;;;30.41;67.69;101153.41;4968833;28;69876;-41
2024/01/01 03:20:57;;;;;;;9.40;8.50;;;;;;;30.43;67.34;101151.31;4953924;28;65531;-40
2024/01/01 03:23:27;;;;;;;9.38;8.30;;;;;;;30.47;67.40;101151.72;4977565;28;70403;-40
2024/01/01 03:25:58;;;;;;;8.98;8.18;;;;;;;30.41;67.42;101144.47;4977866;28;66413;-40
2024/01/01 03:28:28;;;;;;;9.27;8.57;;;;;;;30.53;67.41;101152.75;4973991;28;70662;-40
2024/01/01 03:31:00;;;;;;;8.10;7.50;;;;;;;30.53;67.56;101156.28;4962701;28;66530;-41
2024/01/01 03:33:34;;;;;;;;;;;;;;;30.18;69.18;101143.00;4977061;28;70248;-40
2024/01/01 03:36:04;;;;;;;7.18;6.65;;;;;;;30.51;67.37;101131.31;4985073;28;66186;-40
2024/01/01 03:38:34;;;;;;;6.93;6.43;;;;;;;30.56;67.70;101134.19;4978563;28;69644;-40
2024/01/01 03:41:05;;;;;;;8.60;7.85;;;;;;;30.59;67.36;101133.81;4989553;28;66555;-40
2024/01/01 03:43:35;;;;;;;7.72;7.20;;;;;;;30.63;67.47;101129.63;4969991;28;69673;-40
2024/01/01 03:46:06;;;;;;;6.97;6.53;;;;;;;30.66;67.54;101126.47;4988818;28;65862;-41
2024/01/01 03:48:36;;;;;;;8.00;7.50;;;;;;;30.69;67.89;101117.09;4971653;28;69824;-40
2024/01/01 03:51:06;;;;;;;7.18;6.55;;;;;;;30.71;67.29;101115.84;4969778;28;65089;-41
2024/01/01 03:53:37;;;;;;;6.80;6.40;;;;;;;30.73;67.60;101102.94;4989678;28;70151;-41
2024/01/01 03:56:07;;;;;;;11.48;7.55;;;;;;;30.63;68.75;101107.13;4965342;28;65198;-40
2024/01/01 03:58:38;;;;;;;12.95;8.38;;;;;;;30.49;70.48;101107.16;4991519;28;70365;-39
2024/01/01 04:01:15;;;;;;;10.85;7.45;;;;;;;30.32;68.32;101105.13;4962905;28;65496;-39
2024/01/01 04:03:45;;;;;;;9.18;8.38;;;;;;;30.15;67.07;101110.13;4973051;28;70559;-39
2024/01/01 04:06:15;;;;;;;8.68;7.97;;;;;;;29.94;65.74;101093.06;4965255;28;65791;-38
2024/01/01 04:08:46;;;;;;;11.93;8.23;;;;;;;30.00;63.99;101110.31;4986512;28;70369;-39
2024/01/01 04:11:16;;;;;;;7.65;6.93;;;;;;;29.80;63.82;101096.81;4993704;28;65689;-41
2024/01/01 04:13:46;;;;;;;8.35;7.60;;;;;;;29.78;62.99;101094.34;4976889;28;69581;-39
2024/01/01 04:16:16;;;;;;;14.32;7.07;;;;;;;29.73;62.29;101102.22;4980160;28;66129;-40
2024/01/01 04:18:46;;;;;;;13.50;7.22;;;;;;;29.64;61.87;101097.22;4973689;28;70521;-37
2024/01/01 04:21:17;;;;;;;9.77;7.80;;;;;;;29.51;61.22;101081.81;4966802;28;66333;-39
2024/01/01 04:23:48;;;;;;;9.00;7.63;;;;;;;29.54;60.07;101086.78;4969227;28;70601;-37
2024/01/01 04:26:18;;;;;;;7.53;6.82;;;;;;;29.45;59.76;101090.72;4944983;28;65299;-38
2024/01/01 04:28:48;;;;;;;7.47;6.97;;;;;;;29.35;57.89;101077.63;4966863;28;69936;-39
2024/01/01 04:31:19;;;;;;;7.50;6.90;;;;;;;29.34;59.18;101078.66;4948008;28;66539;-37
2024/01/01 04:33:50;;;;;;;7.55;6.90;;;;;;;29.26;57.07;101076.97;4975616;28;70249;-39
2024/01/01 04:36:21;;;;;;;7.05;6.53;;;;;;;29.27;58.58;101070.53;4963313;28;66275;-38
2024/01/01 04:38:51;;;;;;;7.97;7.40;;;;;;;29.15;56.54;101072.19;4943064;28;70613;-38
2024/01/01 04:41:21;;;;;;;7.07;6.57;;;;;;;29.10;57.30;101058.44;4947652;28;65670;-39
2024/01/01 04:43:51;;;;;;;8.00;7.25;;;;;;;29.00;53.92;101053.38;4962035;28;70235;-39
2024/01/01 04:46:22;;;;;;;8.02;7.43;;;;;;;29.02;54.74;101051.31;4973012;28;66036;-39
2024/01/01 04:48:52;;;;;;;7.97;7.38;;;;;;;29.01;55.87;101038.03;4963444;28;70432;-39
2024/01/01 04:51:22;;;;;;;7.32;6.93;;;;;;;28.90;53.26;101037.59;4950110;28;66078;-38
2024/01/01 04:53:52;;;;;;;7.32;6.72;;;;;;;28.95;55.46;101024.31;4962956;28;69749;-38
2024/01/01 04:56:23;;;;;;;7.35;6.75;;;;;;;28.80;53.09;101002.03;4965612;28;66331;-38
2024/01/01 04:58:54;;;;;;;6.75;6.32;;;;;;;28.89;54.79;101025.13;4948977;28;69202;-38
2024/01/01 05:01:26;;;;;;;8.27;7.47;;;;;;;28.80;54.00;101004.72;4966034;28;66550;-39
2024/01/01 05:03:56;;;;;;;6.88;6.47;;;;;;;28.93;54.01;101015.56;4954085;28;70357;-39
2024/01/01 05:06:27;;;;;;;8.32;7.57;;;;;;;28.91;54.13;101006.84;4953668;28;65952;-38
2024/01/01 05:08:58;;;;;;;9.02;6.43;;;;;;;28.82;53.37;100996.44;4974739;28;70085;-37
2024/01/01 05:11:29;;;;;;;7.43;6.93;;;;;;;28.89;54.05;100998.13;4961534;28;65697;-38
2024/01/01 05:14:00;;;;;;;;;;;;;;;28.65;51.99;100985.19;4961983;28;69320;-37
2024/01/01 05:16:31;;;;;;;9.35;6.40;;;;;;;28.89;53.60;100986.47;4957605;28;66766;-38
2024/01/01 05:19:02;;;;;;;;;;;;;;;28.64;51.20;100986.19;4964851;28;70238;-38
2024/01/01 05:21:32;;;;;;;6.82;6.22;;;;;;;28.81;52.29;100979.41;4966814;28;66104;-40
2024/01/01 05:24:03;;;;;;;11.70;6.45;;;;;;;28.82;52.64;100967.56;4977980;28;70037;-39
2024/01/01 05:26:33;;;;;;;7.43;6.72;;;;;;;28.87;52.71;100970.50;4976798;28;66756;-38
2024/01/01 05:29:03;;;;;;;6.82;6.32;;;;;;;28.89;51.99;100970.28;4951419;28;69297;-38
2024/01/01 05:31:34;;;;;;;6.78;6.40;;;;;;;28.93;52.85;100971.53;4949584;28;65382;-40
2024/01/01 05:34:05;;;;;;;7.60;7.00;;;;;;;28.94;53.42;100962.38;4954150;28;70250;-40
2024/01/01 05:36:35;;;;;;;9.70;7.20;;;;;;;28.95;55.18;100956.81;4964246;28;66498;-41
2024/01/01 05:39:05;;;;;;;19.20;6.90;;;;;;;29.20;55.01;100948.13;4950931;28;69145;-40
2024/01/01 05:41:36;;;;;;;10.52;7.13;;;;;;;29.28;54.65;100930.88;4967751;28;66564;-40
2024/01/01 05:44:06;;;;;;;8.10;6.78;;;;;;;29.33;54.67;100940.00;4969137;28;70656;-42
2024/01/01 05:46:37;;;;;;;36.53;7.65;;;;;;;29.29;54.54;100919.84;4973824;28;66554;-44
2024/01/01 05:49:08;;;;;;;20.60;6.90;;;;;;;29.34;54.28;100913.84;4959951;28;69095;-40
2024/01/01 05:51:38;;;;;;;10.90;6.35;;;;;;;29.32;54.23;100916.72;4967094;28;66998;-40
2024/01/01 05:54:09;;;;;;;22.77;7.20;;;;;;;29.36;53.45;100914.44;4972546;28;70404;-39
2024/01/01 05:56:39;;;;;;;7.80;7.05;;;;;;;29.38;53.24;100915.88;4947754;28;66734;-41
2024/01/01 05:59:10;;;;;;;8.50;7.35;;;;;;;29.34;53.37;100903.84;4961399;28;70422;-40
2024/01/01 06:01:40;;;;;;;7.40;6.82;;;;;;;29.35;53.33;100900.09;4966104;28;66470;-41
2024/01/01 06:04:10;;;;;;;10.18;6.95;;;;;;;29.27;53.31;100889.50;4951969;28;70572;-40
2024/01/01 06:06:41;;;;;;;7.60;6.80;;;;;;;29.22;53.10;100875.78;4966476;28;66688;-42
2024/01/01 06:09:11;;;;;;;10.38;7.50;;;;;;;29.30;52.68;100891.78;4973752;28;70646;-41
2024/01/01 06:11:41;;;;;;;7.10;6.43;;;;;;;29.22;52.93;100872.25;4938881;28;65111;-40
2024/01/01 06:14:14;;;;;;;7.25;6.65;;;;;;;29.27;52.76;100877.88;4961145;28;69975;-42
2024/01/01 06:16:45;;;;;;;8.05;7.25;;;;;;;29.27;52.65;100877.88;4990555;28;66144;-41
2024/01/01 06:19:16;;;;;;;7.20;6.50;;;;;;;29.25;52.09;100877.25;4974736;28;70365;-41
2024/01/01 06:21:47;;;;;;;7.55;6.95;;;;;;;29.17;52.65;100859.41;4968362;28;66445;-44
2024/01/01 06:24:18;;;;;;;8.52;6.30;;;;;;;29.23;52.02;100874.78;4993427;28;71348;-44
2024/01/01 06:26:49;;;;;;;7.03;6.50;;;;;;;29.13;51.86;100863.56;4965254;28;64791;-40
2024/01/01 06:29:20;;;;;;;6.72;6.28;;;;;;;29.19;51.88;100862.72;4981440;28;69798;-41
2024/01/01 06:31:51;;;;;;;7.60;6.82;;;;;;;29.22;52.31;100867.69;4974849;28;66126;-42
2024/01/01 06:34:22;;;;;;;7.82;6.95;;;;;;;29.20;52.07;100864.38;4956295;28;69964;-42
2024/01/01 06:36:52;;;;;;;7.07;6.57;;;;;;;29.21;52.14;100863.34;4993339;28;66673;-41
2024/01/01 06:39:22;;;;;;;7.38;6.80;;;;;;;29.19;52.04;100862.72;4982745;28;70389;-43
2024/01/01 06:41:52;;;;;;;6.72;6.32;;;;;;;29.17;51.95;100856.72;4963847;28;66367;-40
2024/01/01 06:44:25;;;;;;;7.00;6.43;;;;;;;29.21;51.74;100849.84;4978524;28;70153;-41
2024/01/01 06:46:55;;;;;;;;;;;;;;;29.03;49.95;100842.38;4966103;28;66307;-41
2024/01/01 06:49:25;;;;;;;7.25;6.72;;;;;;;29.19;51.50;100841.09;4979796;28;70861;-41
2024/01/01 06:51:59;;;;;;;10.82;6.60;;;;;;;29.18;51.96;100834.03;4981673;28;65979;-41
2024/01/01 06:54:29;;;;;;;6.78;6.28;;;;;;;29.16;51.42;100833.41;4979306;28;70670;-41
2024/01/01 06:57:00;;;;;;;6.47;5.97;;;;;;;29.13;51.91;100825.72;4979526;28;66186;-40
2024/01/01 06:59:30;;;;;;;7.10;6.60;;;;;;;29.20;51.44;100831.97;4955699;28;70465;-41
2024/01/01 07:02:00;;;;;;;6.72;6.20;;;;;;;29.19;51.35;100830.28;4989622;28;66644;-41
2024/01/01 07:04:31;;;;;;;6.85;6.20;;;;;;;29.14;51.44;100816.56;4980444;28;70500;-41
2024/01/01 07:07:03;;;;;;;10.27;5.97;;;;;;;29.17;51.14;100827.81;4976971;28;66486;-41
2024/01/01 07:09:34;;;;;;;6.55;6.15;;;;;;;29.14;51.58;100817.44;4970167;28;69618;-40
2024/01/01 07:12:19;;;;;;;6.85;6.35;;;;;;;29.11;48.99;100817.84;4982865;28;65847;-41
2024/01/01 07:14:50;;;;;;;6.60;6.20;;;;;;;29.08;50.92;100795.81;4987566;28;70484;-41
2024/01/01 07:17:21;;;;;;;7.10;6.70;;;;;;;28.73;51.23;100739.34;4959415;28;65896;-41
2024/01/01 07:19:52;;;;;;;6.35;5.85;;;;;;;29.06;51.35;100803.28;4964901;28;69444;-41
2024/01/01 07:22:24;;;;;;;6.90;6.40;;;;;;;29.08;50.90;100806.63;4930263;28;65248;-42
2024/01/01 07:24:54;;;;;;;6.50;6.10;;;;;;;29.08;50.86;100802.03;4965814;28;69706;-41
2024/01/01 07:27:24;;;;;;;6.53;6.07;;;;;;;29.09;51.09;100803.72;4949343;28;66966;-42
2024/01/01 07:29:55;;;;;;;6.82;6.32;;;;;;;29.10;50.97;100799.97;4960504;28;70010;-40
2024/01/01 07:32:27;;;;;;;20.65;7.22;;;;;;;29.19;51.87;100792.47;4966382;28;65889;-43
2024/01/01 07:34:58;;;;;;;10.70;6.38;;;;;;;29.26;52.35;100771.69;4943478;28;70628;-42
2024/01/01 07:37:29;;;;;;;11.32;5.72;;;;;;;29.42;52.74;100775.81;4949275;28;66679;-43
2024/01/01 07:39:59;;;;;;;8.23;6.90;;;;;;;29.59;52.73;100784.28;4974191;28;70329;-43
2024/01/01 07:42:31;;;;;;;6.93;6.32;;;;;;;29.68;53.78;100780.31;4952605;28;66168;-42
2024/01/01 07:45:02;;;;;;;8.13;7.35;;;;;;;29.80;53.59;100789.38;4967509;28;69779;-42
2024/01/01 07:47:33;;;;;;;8.35;7.47;;;;;;;29.90;54.43;100788.94;4959921;28;65200;-42
2024/01/01 07:50:03;;;;;;;7.68;7.07;;;;;;;30.00;54.63;100783.03;4953114;28;70908;-42
2024/01/01 07:52:34;;;;;;;7.75;7.25;;;;;;;30.05;54.44;100785.94;4971519;28;66344;-42
2024/01/01 07:55:06;;;;;;;8.15;7.35;;;;;;;30.10;54.79;100783.41;4971957;28;70395;-43
2024/01/01 07:57:38;;;;;;;7.63;7.00;;;;;;;30.23;54.81;100794.19;4973890;28;66133;-43
2024/01/01 08:00:09;;;;;;;;;;;;;;;30.07;63.02;100791.97;4971450;28;70555;-39
2024/01/01 08:02:40;;;;;;;11.55;9.40;;;;;;;30.09;62.26;100779.06;4968689;28;66689;-41
2024/01/01 08:05:11;;;;;;;11.20;10.07;;;;;;;30.23;66.20;100790.66;4954129;28;70352;-39
2024/01/01 08:07:47;;;;;;;10.83;9.73;;;;;;;30.27;65.08;100787.28;4970379;28;66344;-40
2024/01/01 08:10:18;;;;;;;10.60;9.70;;;;;;;30.38;65.61;100795.75;4972539;28;69966;-37
2024/01/01 08:12:48;;;;;;;12.80;9.32;;;;;;;30.38;69.05;100799.28;4971782;28;66425;-39
2024/01/01 08:15:19;;;;;;;13.70;8.88;;;;;;;30.38;68.76;100784.94;4958622;28;70733;-40
2024/01/01 08:17:49;;;;;;;15.57;9.52;;;;;;;30.38;69.45;100779.53;4950896;28;66150;-42
2024/01/01 08:20:21;;;;;;;9.38;8.65;;;;;;;30.51;68.59;100784.84;4971224;28;69678;-41
2024/01/01 08:22:52;;;;;;;9.07;8.27;;;;;;;30.59;67.99;100792.69;4961811;28;66091;-41
2024/01/01 08:25:23;;;;;;;10.30;8.90;;;;;;;30.75;64.79;100798.59;4955029;28;69707;-41
2024/01/01 08:27:53;;;;;;;11.95;7.70;;;;;;;30.90;62.98;100799.94;4946764;28;66499;-44
2024/01/01 08:30:26;;;;;;;7.80;7.10;;;;;;;31.01;62.35;100801.09;4953664;28;69398;-40
2024/01/01 08:32:57;;;;;;;7.53;7.03;;;;;;;31.09;62.03;100795.41;4973080;28;65433;-41
2024/01/01 08:35:30;;;;;;;10.40;7.60;;;;;;;31.12;61.95;100797.66;4955970;28;69731;-42
2024/01/01 08:38:02;;;;;;;10.32;6.82;;;;;;;31.15;61.97;100797.19;4952392;28;66050;-40
2024/01/01 08:40:33;;;;;;;9.52;7.32;;;;;;;31.25;61.44;100795.84;4969248;28;70799;-40
2024/01/01 08:43:03;;;;;;;14.45;6.63;;;;;;;31.35;61.53;100802.41;4954366;28;66126;-41
2024/01/01 08:45:33;;;;;;;8.02;7.00;;;;;;;31.30;61.51;100785.16;4955442;28;69623;-40
2024/01/01 08:48:04;;;;;;;7.35;6.65;;;;;;;31.47;61.52;100804.38;4974699;28;66129;-39
2024/01/01 08:50:35;;;;;;;7.35;6.38;;;;;;;31.47;61.94;100799.78;4976841;28;70067;-41
2024/01/01 08:53:05;;;;;;;10.10;6.68;;;;;;;31.27;66.98;100797.28;4964194;28;66700;-39
2024/01/01 08:55:36;;;;;;;8.73;7.20;;;;;;;31.02;68.07;100775.66;4971001;28;72021;-42
2024/01/01 08:58:07;;;;;;;10.20;7.95;;;;;;;31.12;69.72;100797.66;4969060;28;66139;-41
2024/01/01 09:00:37;;;;;;;10.45;7.22;;;;;;;31.16;66.93;100798.03;4977843;28;70165;-41
2024/01/01 09:03:07;;;;;;;9.90;7.10;;;;;;;31.12;70.78;100807.63;4974082;28;66429;-42
2024/01/01 09:05:37;;;;;;;12.30;7.05;;;;;;;31.17;67.29;100800.53;4979153;28;70223;-42
2024/01/01 09:08:08;;;;;;;12.45;6.95;;;;;;;31.18;69.38;100798.63;4961700;28;65998;-40
2024/01/01 09:10:38;;;;;;;8.73;7.35;;;;;;;31.16;69.14;100806.97;4972989;28;70515;-42
2024/01/01 09:13:09;;;;;;;7.78;6.70;;;;;;;31.17;69.94;100799.66;4960449;28;66786;-42
2024/01/01 09:15:39;;;;;;;13.55;8.20;;;;;;;31.15;69.20;100799.91;4971209;28;70272;-41
2024/01/01 09:18:09;;;;;;;10.52;7.47;;;;;;;31.22;70.09;100815.25;4961906;28;66298;-41
2024/01/01 09:20:41;;;;;;;10.83;8.43;;;;;;;31.25;71.28;100809.38;4980031;28;69907;-42
2024/01/01 09:23:13;;;;;;;8.75;7.95;;;;;;;31.30;68.43;100810.38;4950333;28;66175;-42
2024/01/01 09:25:43;;;;;;;8.53;7.87;;;;;;;31.32;69.77;100807.44;4960801;28;69039;-41
2024/01/01 09:28:13;;;;;;;11.73;8.95;;;;;;;31.28;70.18;100806.22;4946353;28;65255;-42
2024/01/01 09:30:43;;;;;;;10.27;8.75;;;;;;;31.29;70.56;100799.78;4936221;28;70251;-42
2024/01/01 09:33:14;;;;;;;9.93;8.93;;;;;;;31.32;71.81;100811.00;4974129;28;66190;-41
2024/01/01 09:35:46;;;;;;;13.95;8.48;;;;;;;31.40;70.16;100826.16;4976174;28;70107;-41
2024/01/01 09:38:17;;;;;;;10.27;9.05;;;;;;;31.35;71.58;100817.84;4962188;28;66623;-42
2024/01/01 09:40:47;;;;;;;11.73;10.57;;;;;;;31.43;70.29;100830.31;4968132;28;69747;-41
2024/01/01 09:43:18;;;;;;;12.80;11.52;;;;;;;31.43;72.11;100831.13;4979334;28;66140;-40
2024/01/01 09:45:48;;;;;;;13.52;12.30;;;;;;;31.47;71.71;100835.03;4959732;28;70256;-41
2024/01/01 09:48:19;;;;;;;14.38;10.63;;;;;;;31.49;70.10;100835.66;4977729;28;66781;-41
2024/01/01 09:50:51;;;;;;;12.50;11.05;;;;;;;31.19;71.59;100780.50;4976255;28;69984;-40
2024/01/01 09:53:24;;;;;;;13.75;10.93;;;;;;;31.56;71.09;100844.50;4974432;28;66602;-40
2024/01/01 09:55:55;;;;;;;20.60;10.15;;;;;;;31.57;70.59;100848.91;4974056;28;69643;-44
2024/01/01 09:58:26;;;;;;;11.05;9.88;;;;;;;31.38;72.55;100828.25;4968903;28;65047;-40
2024/01/01 10:01:13;;;;;;;10.35;9.18;;;;;;;31.50;73.33;100853.56;4976996;28;70228;-41
2024/01/01 10:03:43;;;;;;;13.15;9.25;;;;;;;31.52;72.32;100859.59;4969762;28;65326;-42
2024/01/01 10:06:13;;;;;;;14.30;9.60;;;;;;;31.44;68.41;100819.22;4954201;28;69110;-42
2024/01/01 10:08:44;;;;;;;23.92;8.77;;;;;;;31.85;67.68;100866.53;4971143;28;66320;-40
2024/01/01 10:11:20;;;;;;;51.38;9.43;;;;;;;31.95;68.46;100866.81;4975565;28;70437;-41
2024/01/01 10:13:51;;;;;;;36.10;9.55;;;;;;;32.02;67.25;100875.72;4961157;28;66196;-40
2024/01/01 10:16:26;;;;;;;31.02;9.30;;;;;;;31.67;67.70;100817.72;4987745;28;70137;-40
2024/01/01 10:18:58;;;;;;;15.85;8.57;;;;;;;32.08;66.96;100878.59;4974911;28;65524;-41
2024/01/01 10:21:36;;;;;;;19.63;8.60;;;;;;;32.11;67.67;100880.84;4971774;28;69569;-41
2024/01/01 10:24:22;;;;;;;28.13;9.18;;;;;;;32.14;67.60;100891.22;4963409;28;66240;-41
2024/01/01 10:27:01;;;;;;;20.25;8.63;;;;;;;32.22;66.67;100882.78;4941432;28;70076;-41
2024/01/01 10:29:35;;;;;;;19.90;8.53;;;;;;;32.20;67.27;100884.88;4976074;28;68820;-41
2024/01/01 10:32:08;;;;;;;12.57;8.30;;;;;;;32.24;66.72;100888.81;4966478;28;69799;-41
2024/01/01 10:34:39;;;;;;;12.57;9.60;;;;;;;32.28;67.10;100890.00;4967745;28;66556;-43
2024/01/01 10:37:10;;;;;;;19.33;8.75;;;;;;;32.17;67.02;100874.47;4970397;28;69781;-41
2024/01/01 10:39:44;;;;;;;12.63;9.30;;;;;;;32.29;67.12;100891.66;4959501;28;67037;-40
2024/01/01 10:42:14;;;;;;;19.00;9.07;;;;;;;32.33;67.22;100892.84;4978967;28;70454;-40
2024/01/01 10:44:45;;;;;;;15.18;9.52;;;;;;;32.33;67.45;100895.56;4965096;28;66037;-40
2024/01/01 10:47:19;;;;;;;11.75;8.68;;;;;;;32.24;67.06;100891.53;4947049;28;70131;-46
2024/01/01 10:49:59;;;;;;;18.17;9.13;;;;;;;32.34;67.62;100908.06;4946517;28;66067;-42
2024/01/01 10:52:47;;;;;;;13.90;9.52;;;;;;;32.28;68.18;100909.00;4981242;28;70085;-41
2024/01/01 10:55:31;;;;;;;11.65;9.02;;;;;;;32.29;68.42;100916.09;4952018;28;66356;-41
2024/01/01 10:58:50;;;;;;;12.55;8.95;;;;;;;32.26;68.89;100938.25;4945383;28;69526;-41
2024/01/01 11:01:23;;;;;;;10.30;8.52;;;;;;;32.35;67.92;100920.59;4969782;28;66739;-41
2024/01/01 11:03:54;;;;;;;18.65;9.60;;;;;;;32.36;67.77;100910.56;4932517;28;68661;-43
2024/01/01 11:06:29;;;;;;;9.48;8.23;;;;;;;32.35;67.68;100920.59;4946502;28;65803;-42
2024/01/01 11:09:18;;;;;;;13.07;8.50;;;;;;;32.26;69.19;100922.81;4940134;28;69912;-41
2024/01/01 11:11:51;;;;;;;10.10;8.38;;;;;;;32.36;67.91;100924.13;4938239;28;66626;-41
2024/01/01 11:14:28;;;;;;;8.85;7.60;;;;;;;32.32;68.62;100931.91;4947328;28;70773;-42
2024/01/01 11:17:07;;;;;;;9.63;7.03;;;;;;;32.34;68.58;100940.63;4946640;28;64858;-41
2024/01/01 11:19:49;;;;;;;8.88;8.07;;;;;;;31.98;73.91;100931.50;4943137;28;69762;-41
2024/01/01 11:22:19;;;;;;;8.38;7.53;;;;;;;31.84;74.07;100935.38;4956041;28;66159;-41
2024/01/01 11:24:50;;;;;;;12.15;7.90;;;;;;;31.71;74.78;100938.25;4980507;28;70697;-41
2024/01/01 11:27:35;;;;;;;8.77;7.53;;;;;;;31.56;77.08;100938.59;4948002;28;66074;-40
2024/01/01 11:30:08;;;;;;;7.00;6.50;;;;;;;31.59;76.73;100940.84;4941042;28;69076;-40
2024/01/01 11:32:38;;;;;;;11.60;7.20;;;;;;;31.47;76.79;100935.34;4960655;28;65316;-39
2024/01/01 11:35:15;;;;;;;7.65;6.93;;;;;;;31.47;77.98;100946.19;4973616;28;69111;-40
2024/01/01 11:37:46;;;;;;;7.72;6.90;;;;;;;31.44;77.62;100954.75;4949584;28;66220;-39
2024/01/01 11:40:17;;;;;;;13.55;7.38;;;;;;;31.38;78.57;100955.66;4946525;28;69354;-40